sensor_id;sensor_type;location;lat;lon;timestamp;P1;durP1;ratioP1;P2;durP2;ratioP2
48526;SDS011;34317;51.660;5.824;2022-08-20T00:00:37;13.82;;;8.02;;
48526;SDS011;34317;51.660;5.824;2022-08-20T00:03:09;13.05;;;8.98;;
48526;SDS011;34317;51.660;5.824;2022-08-20T00:05:41;15.80;;;8.85;;
48526;SDS011;34317;51.660;5.824;2022-08-20T00:08:12;13.30;;;8.63;;
48526;SDS011;34317;51.660;5.824;2022-08-20T00:10:42;12.07;;;8.40;;
48526;SDS011;34317;51.660;5.824;2022-08-20T00:13:14;15.30;;;8.52;;
48526;SDS011;34317;51.660;5.824;2022-08-20T00:15:44;14.15;;;8.30;;
48526;SDS011;34317;51.660;5.824;2022-08-20T00:18:12;13.38;;;7.88;;
48526;SDS011;34317;51.660;5.824;2022-08-20T00:20:41;12.43;;;8.23;;
48526;SDS011;34317;51.660;5.824;2022-08-20T00:23:11;11.05;;;7.57;;
48526;SDS011;34317;51.660;5.824;2022-08-20T00:25:38;11.90;;;7.82;;
48526;SDS011;34317;51.660;5.824;2022-08-20T00:28:06;10.20;;;7.30;;
48526;SDS011;34317;51.660;5.824;2022-08-20T00:30:34;11.57;;;7.05;;
48526;SDS011;34317;51.660;5.824;2022-08-20T00:33:08;9.65;;;6.90;;
48526;SDS011;34317;51.660;5.824;2022-08-20T00:35:39;11.30;;;7.20;;
48526;SDS011;34317;51.660;5.824;2022-08-20T00:38:08;10.45;;;7.32;;
48526;SDS011;34317;51.660;5.824;2022-08-20T00:40:38;10.15;;;6.40;;
48526;SDS011;34317;51.660;5.824;2022-08-20T00:43:23;8.07;;;6.32;;
48526;SDS011;34317;51.660;5.824;2022-08-20T00:45:50;10.32;;;6.93;;
48526;SDS011;34317;51.660;5.824;2022-08-20T00:48:22;10.02;;;6.20;;
48526;SDS011;34317;51.660;5.824;2022-08-20T00:50:51;11.50;;;6.43;;
48526;SDS011;34317;51.660;5.824;2022-08-20T00:53:22;9.70;;;6.43;;
48526;SDS011;34317;51.660;5.824;2022-08-20T00:55:52;11.30;;;6.70;;
48526;SDS011;34317;51.660;5.824;2022-08-20T00:58:19;9.52;;;6.57;;
48526;SDS011;34317;51.660;5.824;2022-08-20T01:00:47;8.43;;;6.35;;
48526;SDS011;34317;51.660;5.824;2022-08-20T01:03:16;11.43;;;6.63;;
48526;SDS011;34317;51.660;5.824;2022-08-20T01:05:48;10.57;;;6.55;;
48526;SDS011;34317;51.660;5.824;2022-08-20T01:08:17;10.18;;;6.57;;
48526;SDS011;34317;51.660;5.824;2022-08-20T01:10:47;11.75;;;7.45;;
48526;SDS011;34317;51.660;5.824;2022-08-20T01:13:17;10.83;;;7.27;;
48526;SDS011;34317;51.660;5.824;2022-08-20T01:15:48;12.70;;;7.88;;
48526;SDS011;34317;51.660;5.824;2022-08-20T01:18:19;14.93;;;8.30;;
48526;SDS011;34317;51.660;5.824;2022-08-20T01:20:52;11.88;;;8.00;;
48526;SDS011;34317;51.660;5.824;2022-08-20T01:23:46;12.20;;;7.95;;
48526;SDS011;34317;51.660;5.824;2022-08-20T01:26:20;12.73;;;7.97;;
48526;SDS011;34317;51.660;5.824;2022-08-20T01:28:52;13.15;;;8.18;;
48526;SDS011;34317;51.660;5.824;2022-08-20T01:31:28;11.45;;;8.13;;
48526;SDS011;34317;51.660;5.824;2022-08-20T01:33:58;13.25;;;8.10;;
48526;SDS011;34317;51.660;5.824;2022-08-20T01:36:28;12.38;;;8.27;;
48526;SDS011;34317;51.660;5.824;2022-08-20T01:39:00;11.52;;;8.23;;
48526;SDS011;34317;51.660;5.824;2022-08-20T01:41:29;13.40;;;8.07;;
48526;SDS011;34317;51.660;5.824;2022-08-20T01:44:21;16.05;;;8.20;;
48526;SDS011;34317;51.660;5.824;2022-08-20T01:46:51;10.80;;;7.80;;
48526;SDS011;34317;51.660;5.824;2022-08-20T01:49:31;12.75;;;8.20;;
48526;SDS011;34317;51.660;5.824;2022-08-20T01:52:01;13.60;;;8.65;;
48526;SDS011;34317;51.660;5.824;2022-08-20T01:54:33;14.00;;;9.02;;
48526;SDS011;34317;51.660;5.824;2022-08-20T01:57:03;13.82;;;8.95;;
48526;SDS011;34317;51.660;5.824;2022-08-20T02:02:03;11.50;;;7.97;;
48526;SDS011;34317;51.660;5.824;2022-08-20T02:04:33;13.77;;;9.20;;
48526;SDS011;34317;51.660;5.824;2022-08-20T02:07:01;14.05;;;8.38;;
48526;SDS011;34317;51.660;5.824;2022-08-20T02:09:32;13.07;;;8.18;;
48526;SDS011;34317;51.660;5.824;2022-08-20T02:12:02;12.90;;;8.90;;
48526;SDS011;34317;51.660;5.824;2022-08-20T02:14:32;11.18;;;8.38;;
48526;SDS011;34317;51.660;5.824;2022-08-20T02:17:00;12.52;;;7.93;;
48526;SDS011;34317;51.660;5.824;2022-08-20T02:19:31;13.55;;;8.57;;
48526;SDS011;34317;51.660;5.824;2022-08-20T02:22:07;11.82;;;7.60;;
48526;SDS011;34317;51.660;5.824;2022-08-20T02:24:42;12.00;;;8.40;;
48526;SDS011;34317;51.660;5.824;2022-08-20T02:27:09;11.35;;;8.05;;
48526;SDS011;34317;51.660;5.824;2022-08-20T02:29:37;12.82;;;8.77;;
48526;SDS011;34317;51.660;5.824;2022-08-20T02:32:05;13.20;;;8.90;;
48526;SDS011;34317;51.660;5.824;2022-08-20T02:34:54;11.75;;;7.80;;
48526;SDS011;34317;51.660;5.824;2022-08-20T02:37:21;13.00;;;8.18;;
48526;SDS011;34317;51.660;5.824;2022-08-20T02:39:48;13.45;;;9.05;;
48526;SDS011;34317;51.660;5.824;2022-08-20T02:42:15;11.60;;;8.50;;
48526;SDS011;34317;51.660;5.824;2022-08-20T02:44:43;13.75;;;8.45;;
48526;SDS011;34317;51.660;5.824;2022-08-20T02:47:10;13.02;;;8.55;;
48526;SDS011;34317;51.660;5.824;2022-08-20T02:49:37;12.57;;;7.97;;
48526;SDS011;34317;51.660;5.824;2022-08-20T02:52:04;13.40;;;8.48;;
48526;SDS011;34317;51.660;5.824;2022-08-20T02:54:31;12.18;;;8.35;;
48526;SDS011;34317;51.660;5.824;2022-08-20T02:56:58;11.13;;;8.27;;
48526;SDS011;34317;51.660;5.824;2022-08-20T02:59:26;11.43;;;8.05;;
48526;SDS011;34317;51.660;5.824;2022-08-20T03:01:53;11.98;;;8.73;;
48526;SDS011;34317;51.660;5.824;2022-08-20T03:04:27;12.35;;;8.45;;
48526;SDS011;34317;51.660;5.824;2022-08-20T03:06:55;13.43;;;8.85;;
48526;SDS011;34317;51.660;5.824;2022-08-20T03:09:23;13.02;;;8.43;;
48526;SDS011;34317;51.660;5.824;2022-08-20T03:11:50;13.98;;;8.90;;
48526;SDS011;34317;51.660;5.824;2022-08-20T03:14:18;12.30;;;7.88;;
48526;SDS011;34317;51.660;5.824;2022-08-20T03:16:45;13.20;;;8.55;;
48526;SDS011;34317;51.660;5.824;2022-08-20T03:19:12;14.23;;;8.85;;
48526;SDS011;34317;51.660;5.824;2022-08-20T03:21:40;13.15;;;8.82;;
48526;SDS011;34317;51.660;5.824;2022-08-20T03:24:07;12.55;;;8.93;;
48526;SDS011;34317;51.660;5.824;2022-08-20T03:26:34;11.20;;;8.57;;
48526;SDS011;34317;51.660;5.824;2022-08-20T03:29:02;11.88;;;8.95;;
48526;SDS011;34317;51.660;5.824;2022-08-20T03:31:30;14.43;;;9.68;;
48526;SDS011;34317;51.660;5.824;2022-08-20T03:33:57;11.27;;;8.70;;
48526;SDS011;34317;51.660;5.824;2022-08-20T03:36:25;13.15;;;9.40;;
48526;SDS011;34317;51.660;5.824;2022-08-20T03:38:55;14.63;;;9.23;;
48526;SDS011;34317;51.660;5.824;2022-08-20T03:41:24;12.63;;;9.38;;
48526;SDS011;34317;51.660;5.824;2022-08-20T03:43:52;15.75;;;10.18;;
48526;SDS011;34317;51.660;5.824;2022-08-20T03:46:19;13.35;;;9.88;;
48526;SDS011;34317;51.660;5.824;2022-08-20T03:48:50;14.60;;;10.10;;
48526;SDS011;34317;51.660;5.824;2022-08-20T03:51:27;14.48;;;10.23;;
48526;SDS011;34317;51.660;5.824;2022-08-20T03:53:56;13.93;;;10.15;;
48526;SDS011;34317;51.660;5.824;2022-08-20T03:56:24;16.08;;;10.75;;
48526;SDS011;34317;51.660;5.824;2022-08-20T03:58:51;16.73;;;10.35;;
48526;SDS011;34317;51.660;5.824;2022-08-20T04:01:18;13.48;;;10.20;;
48526;SDS011;34317;51.660;5.824;2022-08-20T04:04:06;16.02;;;10.25;;
48526;SDS011;34317;51.660;5.824;2022-08-20T04:06:38;14.13;;;10.20;;
48526;SDS011;34317;51.660;5.824;2022-08-20T04:09:08;13.63;;;9.85;;
48526;SDS011;34317;51.660;5.824;2022-08-20T04:11:38;16.27;;;10.82;;
48526;SDS011;34317;51.660;5.824;2022-08-20T04:14:06;15.52;;;10.38;;
48526;SDS011;34317;51.660;5.824;2022-08-20T04:16:36;16.65;;;11.00;;
48526;SDS011;34317;51.660;5.824;2022-08-20T04:19:05;14.77;;;10.52;;
48526;SDS011;34317;51.660;5.824;2022-08-20T04:21:33;19.17;;;12.10;;
48526;SDS011;34317;51.660;5.824;2022-08-20T04:24:02;17.42;;;11.95;;
48526;SDS011;34317;51.660;5.824;2022-08-20T04:26:30;17.83;;;12.52;;
48526;SDS011;34317;51.660;5.824;2022-08-20T04:29:00;17.92;;;11.70;;
48526;SDS011;34317;51.660;5.824;2022-08-20T04:31:27;19.15;;;12.52;;
48526;SDS011;34317;51.660;5.824;2022-08-20T04:33:59;19.50;;;12.02;;
48526;SDS011;34317;51.660;5.824;2022-08-20T04:36:27;17.65;;;11.80;;
48526;SDS011;34317;51.660;5.824;2022-08-20T04:38:55;18.17;;;11.65;;
48526;SDS011;34317;51.660;5.824;2022-08-20T04:41:22;17.85;;;11.93;;
48526;SDS011;34317;51.660;5.824;2022-08-20T04:43:50;16.83;;;11.57;;
48526;SDS011;34317;51.660;5.824;2022-08-20T04:46:20;18.33;;;12.25;;
48526;SDS011;34317;51.660;5.824;2022-08-20T04:48:51;19.13;;;12.35;;
48526;SDS011;34317;51.660;5.824;2022-08-20T04:51:19;18.45;;;12.63;;
48526;SDS011;34317;51.660;5.824;2022-08-20T04:53:50;18.67;;;12.02;;
48526;SDS011;34317;51.660;5.824;2022-08-20T04:56:20;20.90;;;12.05;;
48526;SDS011;34317;51.660;5.824;2022-08-20T04:58:52;18.90;;;12.35;;
48526;SDS011;34317;51.660;5.824;2022-08-20T05:01:21;17.95;;;11.63;;
48526;SDS011;34317;51.660;5.824;2022-08-20T05:03:50;21.05;;;12.82;;
48526;SDS011;34317;51.660;5.824;2022-08-20T05:06:21;21.33;;;12.50;;
48526;SDS011;34317;51.660;5.824;2022-08-20T05:08:52;25.02;;;14.30;;
48526;SDS011;34317;51.660;5.824;2022-08-20T05:11:20;25.35;;;14.63;;
48526;SDS011;34317;51.660;5.824;2022-08-20T05:14:03;23.95;;;14.88;;
48526;SDS011;34317;51.660;5.824;2022-08-20T05:16:34;27.30;;;14.80;;
48526;SDS011;34317;51.660;5.824;2022-08-20T05:19:06;26.85;;;15.18;;
48526;SDS011;34317;51.660;5.824;2022-08-20T05:21:37;24.33;;;15.38;;
48526;SDS011;34317;51.660;5.824;2022-08-20T05:24:05;26.92;;;16.00;;
48526;SDS011;34317;51.660;5.824;2022-08-20T05:26:32;24.63;;;15.02;;
48526;SDS011;34317;51.660;5.824;2022-08-20T05:29:00;30.25;;;16.77;;
48526;SDS011;34317;51.660;5.824;2022-08-20T05:31:30;24.55;;;16.15;;
48526;SDS011;34317;51.660;5.824;2022-08-20T05:34:03;30.58;;;17.50;;
48526;SDS011;34317;51.660;5.824;2022-08-20T05:36:44;29.58;;;17.33;;
48526;SDS011;34317;51.660;5.824;2022-08-20T05:39:15;34.63;;;19.10;;
48526;SDS011;34317;51.660;5.824;2022-08-20T05:41:43;33.03;;;18.80;;
48526;SDS011;34317;51.660;5.824;2022-08-20T05:44:11;30.85;;;18.88;;
48526;SDS011;34317;51.660;5.824;2022-08-20T05:46:43;38.20;;;18.70;;
48526;SDS011;34317;51.660;5.824;2022-08-20T05:49:12;34.28;;;19.75;;
48526;SDS011;34317;51.660;5.824;2022-08-20T05:51:46;37.75;;;20.13;;
48526;SDS011;34317;51.660;5.824;2022-08-20T05:54:14;39.63;;;21.25;;
48526;SDS011;34317;51.660;5.824;2022-08-20T05:56:41;32.67;;;20.15;;
48526;SDS011;34317;51.660;5.824;2022-08-20T05:59:09;37.58;;;21.25;;
48526;SDS011;34317;51.660;5.824;2022-08-20T06:01:38;33.75;;;21.25;;
48526;SDS011;34317;51.660;5.824;2022-08-20T06:04:06;35.00;;;21.73;;
48526;SDS011;34317;51.660;5.824;2022-08-20T06:06:51;35.15;;;20.95;;
48526;SDS011;34317;51.660;5.824;2022-08-20T06:09:20;40.28;;;22.10;;
48526;SDS011;34317;51.660;5.824;2022-08-20T06:11:57;37.58;;;21.52;;
48526;SDS011;34317;51.660;5.824;2022-08-20T06:14:26;35.53;;;20.83;;
48526;SDS011;34317;51.660;5.824;2022-08-20T06:16:53;36.83;;;21.67;;
48526;SDS011;34317;51.660;5.824;2022-08-20T06:19:25;38.75;;;21.27;;
48526;SDS011;34317;51.660;5.824;2022-08-20T06:21:52;37.10;;;22.00;;
48526;SDS011;34317;51.660;5.824;2022-08-20T06:24:20;42.08;;;22.90;;
48526;SDS011;34317;51.660;5.824;2022-08-20T06:26:53;35.65;;;21.80;;
48526;SDS011;34317;51.660;5.824;2022-08-20T06:29:21;37.75;;;22.65;;
48526;SDS011;34317;51.660;5.824;2022-08-20T06:31:48;35.47;;;22.10;;
48526;SDS011;34317;51.660;5.824;2022-08-20T06:34:16;40.20;;;22.85;;
48526;SDS011;34317;51.660;5.824;2022-08-20T06:36:44;34.33;;;21.65;;
48526;SDS011;34317;51.660;5.824;2022-08-20T06:39:12;37.25;;;21.73;;
48526;SDS011;34317;51.660;5.824;2022-08-20T06:41:41;36.58;;;22.63;;
48526;SDS011;34317;51.660;5.824;2022-08-20T06:44:09;33.80;;;21.42;;
48526;SDS011;34317;51.660;5.824;2022-08-20T06:46:36;33.63;;;21.67;;
48526;SDS011;34317;51.660;5.824;2022-08-20T06:49:04;34.60;;;21.83;;
48526;SDS011;34317;51.660;5.824;2022-08-20T06:51:33;35.67;;;21.40;;
48526;SDS011;34317;51.660;5.824;2022-08-20T06:54:00;31.90;;;20.98;;
48526;SDS011;34317;51.660;5.824;2022-08-20T06:56:27;34.33;;;21.25;;
48526;SDS011;34317;51.660;5.824;2022-08-20T06:58:55;32.65;;;20.58;;
48526;SDS011;34317;51.660;5.824;2022-08-20T07:01:22;31.52;;;20.52;;
48526;SDS011;34317;51.660;5.824;2022-08-20T07:03:50;31.13;;;20.30;;
48526;SDS011;34317;51.660;5.824;2022-08-20T07:06:22;31.92;;;20.17;;
48526;SDS011;34317;51.660;5.824;2022-08-20T07:08:53;31.13;;;18.30;;
48526;SDS011;34317;51.660;5.824;2022-08-20T07:11:21;29.40;;;19.45;;
48526;SDS011;34317;51.660;5.824;2022-08-20T07:13:57;30.88;;;19.80;;
48526;SDS011;34317;51.660;5.824;2022-08-20T07:16:24;32.08;;;19.15;;
48526;SDS011;34317;51.660;5.824;2022-08-20T07:18:52;31.17;;;18.60;;
48526;SDS011;34317;51.660;5.824;2022-08-20T07:21:19;35.00;;;20.13;;
48526;SDS011;34317;51.660;5.824;2022-08-20T07:23:46;32.03;;;19.40;;
48526;SDS011;34317;51.660;5.824;2022-08-20T07:26:15;31.38;;;18.92;;
48526;SDS011;34317;51.660;5.824;2022-08-20T07:28:43;30.67;;;19.30;;
48526;SDS011;34317;51.660;5.824;2022-08-20T07:31:11;28.20;;;19.58;;
48526;SDS011;34317;51.660;5.824;2022-08-20T07:34:01;30.08;;;19.20;;
48526;SDS011;34317;51.660;5.824;2022-08-20T07:36:29;27.75;;;19.20;;
48526;SDS011;34317;51.660;5.824;2022-08-20T07:38:56;29.90;;;18.88;;
48526;SDS011;34317;51.660;5.824;2022-08-20T07:41:24;28.30;;;18.27;;
48526;SDS011;34317;51.660;5.824;2022-08-20T07:43:51;27.40;;;17.52;;
48526;SDS011;34317;51.660;5.824;2022-08-20T07:46:18;27.75;;;18.17;;
48526;SDS011;34317;51.660;5.824;2022-08-20T07:48:47;27.80;;;17.33;;
48526;SDS011;34317;51.660;5.824;2022-08-20T07:51:17;28.25;;;17.70;;
48526;SDS011;34317;51.660;5.824;2022-08-20T07:53:46;26.30;;;17.80;;
48526;SDS011;34317;51.660;5.824;2022-08-20T07:56:15;25.85;;;17.38;;
48526;SDS011;34317;51.660;5.824;2022-08-20T07:58:46;24.67;;;15.75;;
48526;SDS011;34317;51.660;5.824;2022-08-20T08:01:17;26.95;;;17.08;;
48526;SDS011;34317;51.660;5.824;2022-08-20T08:03:46;25.42;;;16.23;;
48526;SDS011;34317;51.660;5.824;2022-08-20T08:06:17;24.80;;;15.48;;
48526;SDS011;34317;51.660;5.824;2022-08-20T08:08:58;27.58;;;15.40;;
48526;SDS011;34317;51.660;5.824;2022-08-20T08:11:38;21.80;;;15.40;;
48526;SDS011;34317;51.660;5.824;2022-08-20T08:14:13;20.60;;;15.05;;
48526;SDS011;34317;51.660;5.824;2022-08-20T08:16:47;22.42;;;15.43;;
48526;SDS011;34317;51.660;5.824;2022-08-20T08:19:14;22.48;;;15.15;;
48526;SDS011;34317;51.660;5.824;2022-08-20T08:21:43;20.48;;;14.15;;
48526;SDS011;34317;51.660;5.824;2022-08-20T08:24:11;21.52;;;14.90;;
48526;SDS011;34317;51.660;5.824;2022-08-20T08:26:45;22.52;;;16.52;;
48526;SDS011;34317;51.660;5.824;2022-08-20T08:29:15;19.83;;;14.07;;
48526;SDS011;34317;51.660;5.824;2022-08-20T08:31:42;25.10;;;16.38;;
48526;SDS011;34317;51.660;5.824;2022-08-20T08:34:10;25.20;;;15.40;;
48526;SDS011;34317;51.660;5.824;2022-08-20T08:36:37;20.38;;;14.35;;
48526;SDS011;34317;51.660;5.824;2022-08-20T08:39:05;15.20;;;11.27;;
48526;SDS011;34317;51.660;5.824;2022-08-20T08:41:38;15.88;;;11.25;;
48526;SDS011;34317;51.660;5.824;2022-08-20T08:44:22;10.27;;;7.00;;
48526;SDS011;34317;51.660;5.824;2022-08-20T08:46:58;9.07;;;6.55;;
48526;SDS011;34317;51.660;5.824;2022-08-20T08:49:30;10.43;;;6.80;;
48526;SDS011;34317;51.660;5.824;2022-08-20T08:52:06;11.15;;;6.13;;
48526;SDS011;34317;51.660;5.824;2022-08-20T08:54:37;7.80;;;5.70;;
48526;SDS011;34317;51.660;5.824;2022-08-20T08:57:11;6.57;;;4.93;;
48526;SDS011;34317;51.660;5.824;2022-08-20T08:59:38;7.30;;;5.13;;
48526;SDS011;34317;51.660;5.824;2022-08-20T09:02:27;9.57;;;5.20;;
48526;SDS011;34317;51.660;5.824;2022-08-20T09:04:57;9.65;;;4.85;;
48526;SDS011;34317;51.660;5.824;2022-08-20T09:07:29;7.40;;;4.68;;
48526;SDS011;34317;51.660;5.824;2022-08-20T09:09:59;7.50;;;3.78;;
48526;SDS011;34317;51.660;5.824;2022-08-20T09:12:27;10.20;;;4.43;;
48526;SDS011;34317;51.660;5.824;2022-08-20T09:14:54;6.07;;;4.30;;
48526;SDS011;34317;51.660;5.824;2022-08-20T09:17:21;7.00;;;4.10;;
48526;SDS011;34317;51.660;5.824;2022-08-20T09:19:49;7.15;;;4.00;;
48526;SDS011;34317;51.660;5.824;2022-08-20T09:22:19;4.82;;;3.47;;
48526;SDS011;34317;51.660;5.824;2022-08-20T09:24:48;6.75;;;3.67;;
48526;SDS011;34317;51.660;5.824;2022-08-20T09:27:16;5.97;;;3.35;;
48526;SDS011;34317;51.660;5.824;2022-08-20T09:29:43;5.88;;;2.83;;
48526;SDS011;34317;51.660;5.824;2022-08-20T09:32:13;6.40;;;2.85;;
48526;SDS011;34317;51.660;5.824;2022-08-20T09:34:47;5.47;;;3.00;;
48526;SDS011;34317;51.660;5.824;2022-08-20T09:37:18;7.70;;;2.83;;
48526;SDS011;34317;51.660;5.824;2022-08-20T09:39:45;5.55;;;2.92;;
48526;SDS011;34317;51.660;5.824;2022-08-20T09:42:20;7.57;;;4.22;;
48526;SDS011;34317;51.660;5.824;2022-08-20T09:44:50;8.02;;;4.72;;
48526;SDS011;34317;51.660;5.824;2022-08-20T09:47:18;6.50;;;4.88;;
48526;SDS011;34317;51.660;5.824;2022-08-20T09:49:45;9.43;;;4.68;;
48526;SDS011;34317;51.660;5.824;2022-08-20T09:52:19;6.88;;;4.25;;
48526;SDS011;34317;51.660;5.824;2022-08-20T09:54:49;6.22;;;3.47;;
48526;SDS011;34317;51.660;5.824;2022-08-20T09:57:20;7.95;;;3.80;;
48526;SDS011;34317;51.660;5.824;2022-08-20T09:59:51;9.55;;;3.40;;
48526;SDS011;34317;51.660;5.824;2022-08-20T10:02:23;8.68;;;3.28;;
48526;SDS011;34317;51.660;5.824;2022-08-20T10:04:50;6.35;;;3.30;;
48526;SDS011;34317;51.660;5.824;2022-08-20T10:07:18;6.50;;;2.90;;
48526;SDS011;34317;51.660;5.824;2022-08-20T10:09:45;10.27;;;3.40;;
48526;SDS011;34317;51.660;5.824;2022-08-20T10:12:12;7.30;;;2.78;;
48526;SDS011;34317;51.660;5.824;2022-08-20T10:14:39;6.57;;;3.13;;
48526;SDS011;34317;51.660;5.824;2022-08-20T10:17:07;7.75;;;3.90;;
48526;SDS011;34317;51.660;5.824;2022-08-20T10:19:34;7.60;;;3.80;;
48526;SDS011;34317;51.660;5.824;2022-08-20T10:22:01;5.38;;;3.10;;
48526;SDS011;34317;51.660;5.824;2022-08-20T10:24:29;6.80;;;3.03;;
48526;SDS011;34317;51.660;5.824;2022-08-20T10:26:57;5.53;;;2.80;;
48526;SDS011;34317;51.660;5.824;2022-08-20T10:29:25;7.22;;;2.30;;
48526;SDS011;34317;51.660;5.824;2022-08-20T10:31:54;6.13;;;3.00;;
48526;SDS011;34317;51.660;5.824;2022-08-20T10:34:23;5.93;;;2.78;;
48526;SDS011;34317;51.660;5.824;2022-08-20T10:36:51;6.70;;;2.60;;
48526;SDS011;34317;51.660;5.824;2022-08-20T10:39:18;8.15;;;3.20;;
48526;SDS011;34317;51.660;5.824;2022-08-20T10:41:45;5.85;;;2.33;;
48526;SDS011;34317;51.660;5.824;2022-08-20T10:44:12;7.35;;;2.28;;
48526;SDS011;34317;51.660;5.824;2022-08-20T10:46:39;7.25;;;2.03;;
48526;SDS011;34317;51.660;5.824;2022-08-20T10:49:07;5.72;;;2.25;;
48526;SDS011;34317;51.660;5.824;2022-08-20T10:51:34;5.03;;;1.70;;
48526;SDS011;34317;51.660;5.824;2022-08-20T10:54:01;5.97;;;1.80;;
48526;SDS011;34317;51.660;5.824;2022-08-20T10:56:38;9.40;;;2.25;;
48526;SDS011;34317;51.660;5.824;2022-08-20T10:59:05;7.75;;;1.90;;
48526;SDS011;34317;51.660;5.824;2022-08-20T11:01:32;3.88;;;2.03;;
48526;SDS011;34317;51.660;5.824;2022-08-20T11:04:02;4.22;;;1.60;;
48526;SDS011;34317;51.660;5.824;2022-08-20T11:06:30;4.63;;;1.88;;
48526;SDS011;34317;51.660;5.824;2022-08-20T11:08:57;7.90;;;2.05;;
48526;SDS011;34317;51.660;5.824;2022-08-20T11:11:24;6.45;;;1.80;;
48526;SDS011;34317;51.660;5.824;2022-08-20T11:13:51;6.93;;;1.88;;
48526;SDS011;34317;51.660;5.824;2022-08-20T11:16:19;6.75;;;1.80;;
48526;SDS011;34317;51.660;5.824;2022-08-20T11:18:48;7.15;;;2.28;;
48526;SDS011;34317;51.660;5.824;2022-08-20T11:21:15;5.57;;;2.00;;
48526;SDS011;34317;51.660;5.824;2022-08-20T11:23:42;5.47;;;1.65;;
48526;SDS011;34317;51.660;5.824;2022-08-20T11:26:10;6.60;;;2.17;;
48526;SDS011;34317;51.660;5.824;2022-08-20T11:28:50;5.75;;;1.80;;
48526;SDS011;34317;51.660;5.824;2022-08-20T11:31:17;6.88;;;1.60;;
48526;SDS011;34317;51.660;5.824;2022-08-20T11:33:44;7.15;;;1.92;;
48526;SDS011;34317;51.660;5.824;2022-08-20T11:36:11;7.20;;;1.67;;
48526;SDS011;34317;51.660;5.824;2022-08-20T11:38:38;5.13;;;1.48;;
48526;SDS011;34317;51.660;5.824;2022-08-20T11:41:05;4.22;;;1.50;;
48526;SDS011;34317;51.660;5.824;2022-08-20T11:43:33;6.05;;;1.92;;
48526;SDS011;34317;51.660;5.824;2022-08-20T11:46:00;5.40;;;1.58;;
48526;SDS011;34317;51.660;5.824;2022-08-20T11:48:27;4.20;;;1.60;;
48526;SDS011;34317;51.660;5.824;2022-08-20T11:50:54;5.65;;;1.63;;
48526;SDS011;34317;51.660;5.824;2022-08-20T11:53:21;5.70;;;1.60;;
48526;SDS011;34317;51.660;5.824;2022-08-20T11:55:48;5.82;;;1.70;;
48526;SDS011;34317;51.660;5.824;2022-08-20T11:58:16;4.40;;;1.63;;
48526;SDS011;34317;51.660;5.824;2022-08-20T12:00:43;5.28;;;1.60;;
48526;SDS011;34317;51.660;5.824;2022-08-20T12:03:10;6.07;;;1.88;;
48526;SDS011;34317;51.660;5.824;2022-08-20T12:05:39;5.10;;;1.48;;
48526;SDS011;34317;51.660;5.824;2022-08-20T12:08:07;4.88;;;1.70;;
48526;SDS011;34317;51.660;5.824;2022-08-20T12:10:36;7.30;;;1.60;;
48526;SDS011;34317;51.660;5.824;2022-08-20T12:13:04;6.15;;;1.60;;
48526;SDS011;34317;51.660;5.824;2022-08-20T12:15:36;4.40;;;1.73;;
48526;SDS011;34317;51.660;5.824;2022-08-20T12:18:06;6.22;;;1.52;;
48526;SDS011;34317;51.660;5.824;2022-08-20T12:20:34;4.53;;;1.50;;
48526;SDS011;34317;51.660;5.824;2022-08-20T12:23:02;4.93;;;1.60;;
48526;SDS011;34317;51.660;5.824;2022-08-20T12:25:30;8.55;;;2.10;;
48526;SDS011;34317;51.660;5.824;2022-08-20T12:27:57;6.28;;;1.83;;
48526;SDS011;34317;51.660;5.824;2022-08-20T12:30:25;4.78;;;1.65;;
48526;SDS011;34317;51.660;5.824;2022-08-20T12:32:52;4.65;;;1.40;;
48526;SDS011;34317;51.660;5.824;2022-08-20T12:35:20;5.13;;;1.52;;
48526;SDS011;34317;51.660;5.824;2022-08-20T12:37:47;6.45;;;1.60;;
48526;SDS011;34317;51.660;5.824;2022-08-20T12:40:16;6.63;;;1.63;;
48526;SDS011;34317;51.660;5.824;2022-08-20T12:42:59;6.85;;;1.70;;
48526;SDS011;34317;51.660;5.824;2022-08-20T12:45:28;5.85;;;1.67;;
48526;SDS011;34317;51.660;5.824;2022-08-20T12:48:00;6.90;;;2.05;;
48526;SDS011;34317;51.660;5.824;2022-08-20T12:50:35;3.40;;;1.30;;
48526;SDS011;34317;51.660;5.824;2022-08-20T12:53:04;6.25;;;1.70;;
48526;SDS011;34317;51.660;5.824;2022-08-20T12:55:31;4.38;;;2.05;;
48526;SDS011;34317;51.660;5.824;2022-08-20T12:58:00;5.40;;;1.63;;
48526;SDS011;34317;51.660;5.824;2022-08-20T13:00:34;6.10;;;1.70;;
48526;SDS011;34317;51.660;5.824;2022-08-20T13:03:04;4.40;;;1.77;;
48526;SDS011;34317;51.660;5.824;2022-08-20T13:05:33;4.28;;;1.50;;
48526;SDS011;34317;51.660;5.824;2022-08-20T13:08:01;4.95;;;1.58;;
48526;SDS011;34317;51.660;5.824;2022-08-20T13:10:34;5.07;;;1.60;;
48526;SDS011;34317;51.660;5.824;2022-08-20T13:13:02;4.13;;;1.60;;
48526;SDS011;34317;51.660;5.824;2022-08-20T13:15:30;4.38;;;1.48;;
48526;SDS011;34317;51.660;5.824;2022-08-20T13:17:59;4.93;;;1.73;;
48526;SDS011;34317;51.660;5.824;2022-08-20T13:20:28;4.80;;;1.60;;
48526;SDS011;34317;51.660;5.824;2022-08-20T13:23:01;5.70;;;1.60;;
48526;SDS011;34317;51.660;5.824;2022-08-20T13:25:29;5.93;;;1.73;;
48526;SDS011;34317;51.660;5.824;2022-08-20T13:27:57;11.05;;;1.80;;
48526;SDS011;34317;51.660;5.824;2022-08-20T13:30:26;8.63;;;1.80;;
48526;SDS011;34317;51.660;5.824;2022-08-20T13:32:54;6.72;;;1.92;;
48526;SDS011;34317;51.660;5.824;2022-08-20T13:35:21;6.32;;;1.80;;
48526;SDS011;34317;51.660;5.824;2022-08-20T13:37:48;4.85;;;1.70;;
48526;SDS011;34317;51.660;5.824;2022-08-20T13:40:16;3.72;;;1.63;;
48526;SDS011;34317;51.660;5.824;2022-08-20T13:42:44;4.82;;;1.73;;
48526;SDS011;34317;51.660;5.824;2022-08-20T13:45:11;5.03;;;1.42;;
48526;SDS011;34317;51.660;5.824;2022-08-20T13:47:40;5.05;;;1.90;;
48526;SDS011;34317;51.660;5.824;2022-08-20T13:50:10;6.60;;;1.55;;
48526;SDS011;34317;51.660;5.824;2022-08-20T13:52:41;4.22;;;1.50;;
48526;SDS011;34317;51.660;5.824;2022-08-20T13:55:09;4.85;;;1.67;;
48526;SDS011;34317;51.660;5.824;2022-08-20T13:57:39;5.82;;;1.60;;
48526;SDS011;34317;51.660;5.824;2022-08-20T14:00:07;6.78;;;1.70;;
48526;SDS011;34317;51.660;5.824;2022-08-20T14:02:39;4.03;;;1.65;;
48526;SDS011;34317;51.660;5.824;2022-08-20T14:05:07;4.40;;;1.52;;
48526;SDS011;34317;51.660;5.824;2022-08-20T14:07:36;5.07;;;1.67;;
48526;SDS011;34317;51.660;5.824;2022-08-20T14:10:05;3.83;;;1.42;;
48526;SDS011;34317;51.660;5.824;2022-08-20T14:12:39;4.60;;;1.80;;
48526;SDS011;34317;51.660;5.824;2022-08-20T14:15:06;6.85;;;2.17;;
48526;SDS011;34317;51.660;5.824;2022-08-20T14:17:38;5.43;;;1.48;;
48526;SDS011;34317;51.660;5.824;2022-08-20T14:20:10;5.65;;;1.80;;
48526;SDS011;34317;51.660;5.824;2022-08-20T14:22:39;7.93;;;2.00;;
48526;SDS011;34317;51.660;5.824;2022-08-20T14:25:08;4.82;;;1.67;;
48526;SDS011;34317;51.660;5.824;2022-08-20T14:27:36;5.55;;;1.73;;
48526;SDS011;34317;51.660;5.824;2022-08-20T14:30:05;4.60;;;2.08;;
48526;SDS011;34317;51.660;5.824;2022-08-20T14:32:34;4.18;;;1.58;;
48526;SDS011;34317;51.660;5.824;2022-08-20T14:35:02;5.13;;;1.80;;
48526;SDS011;34317;51.660;5.824;2022-08-20T14:37:36;4.93;;;1.52;;
48526;SDS011;34317;51.660;5.824;2022-08-20T14:40:07;3.88;;;1.77;;
48526;SDS011;34317;51.660;5.824;2022-08-20T14:42:37;4.80;;;1.60;;
48526;SDS011;34317;51.660;5.824;2022-08-20T14:45:06;5.85;;;1.88;;
48526;SDS011;34317;51.660;5.824;2022-08-20T14:47:35;5.35;;;1.50;;
48526;SDS011;34317;51.660;5.824;2022-08-20T14:50:07;7.03;;;2.08;;
48526;SDS011;34317;51.660;5.824;2022-08-20T14:52:36;4.80;;;1.70;;